sensor_id;sensor_type;location;lat;lon;timestamp;temperature;humidity
66568;DHT22;53422;49.296;6.900;2023-04-24T00:02:15;11.90;99.90
66568;DHT22;53422;49.296;6.900;2023-04-24T00:04:41;11.80;99.90
66568;DHT22;53422;49.296;6.900;2023-04-24T00:07:13;11.80;99.90
66568;DHT22;53422;49.296;6.900;2023-04-24T00:09:39;11.80;99.90
66568;DHT22;53422;49.296;6.900;2023-04-24T00:12:05;11.70;99.90
66568;DHT22;53422;49.296;6.900;2023-04-24T00:14:31;11.60;99.90
66568;DHT22;53422;49.296;6.900;2023-04-24T00:16:57;11.70;99.90
66568;DHT22;53422;49.296;6.900;2023-04-24T00:19:22;11.70;99.90
66568;DHT22;53422;49.296;6.900;2023-04-24T00:21:48;11.60;99.90
66568;DHT22;53422;49.296;6.900;2023-04-24T00:24:17;11.60;99.90
66568;DHT22;53422;49.296;6.900;2023-04-24T00:26:44;11.60;99.90
66568;DHT22;53422;49.296;6.900;2023-04-24T00:29:10;11.60;99.90
66568;DHT22;53422;49.296;6.900;2023-04-24T00:31:35;11.60;99.90
66568;DHT22;53422;49.296;6.900;2023-04-24T00:34:02;11.70;99.90
66568;DHT22;53422;49.296;6.900;2023-04-24T00:36:28;11.80;99.90
66568;DHT22;53422;49.296;6.900;2023-04-24T00:38:54;11.60;99.90
66568;DHT22;53422;49.296;6.900;2023-04-24T00:41:21;11.70;99.90
66568;DHT22;53422;49.296;6.900;2023-04-24T00:43:47;11.70;99.90
66568;DHT22;53422;49.296;6.900;2023-04-24T00:46:14;11.70;99.90
66568;DHT22;53422;49.296;6.900;2023-04-24T00:48:40;11.70;99.90
66568;DHT22;53422;49.296;6.900;2023-04-24T00:51:06;11.70;99.90
66568;DHT22;53422;49.296;6.900;2023-04-24T00:53:32;11.70;99.90
66568;DHT22;53422;49.296;6.900;2023-04-24T00:55:58;11.50;99.90
66568;DHT22;53422;49.296;6.900;2023-04-24T00:58:25;11.50;99.90
66568;DHT22;53422;49.296;6.900;2023-04-24T01:00:52;11.50;99.90
66568;DHT22;53422;49.296;6.900;2023-04-24T01:03:25;11.60;99.90
66568;DHT22;53422;49.296;6.900;2023-04-24T01:05:52;11.60;99.90
66568;DHT22;53422;49.296;6.900;2023-04-24T01:08:19;11.60;99.90
66568;DHT22;53422;49.296;6.900;2023-04-24T01:10:46;11.50;99.90
66568;DHT22;53422;49.296;6.900;2023-04-24T01:13:13;11.60;99.90
66568;DHT22;53422;49.296;6.900;2023-04-24T01:15:39;11.50;99.90
66568;DHT22;53422;49.296;6.900;2023-04-24T01:18:04;11.60;99.90
66568;DHT22;53422;49.296;6.900;2023-04-24T01:20:31;11.60;99.90
66568;DHT22;53422;49.296;6.900;2023-04-24T01:22:57;11.60;99.90
66568;DHT22;53422;49.296;6.900;2023-04-24T01:25:24;11.50;99.90
66568;DHT22;53422;49.296;6.900;2023-04-24T01:27:51;11.60;99.90
66568;DHT22;53422;49.296;6.900;2023-04-24T01:30:18;11.50;99.90
66568;DHT22;53422;49.296;6.900;2023-04-24T01:32:44;11.50;99.90
66568;DHT22;53422;49.296;6.900;2023-04-24T01:35:11;11.50;99.90
66568;DHT22;53422;49.296;6.900;2023-04-24T01:37:36;11.50;99.90
66568;DHT22;53422;49.296;6.900;2023-04-24T01:40:06;11.50;99.90
66568;DHT22;53422;49.296;6.900;2023-04-24T01:42:33;11.50;99.90
66568;DHT22;53422;49.296;6.900;2023-04-24T01:45:00;11.50;99.90
66568;DHT22;53422;49.296;6.900;2023-04-24T01:47:26;11.30;99.90
66568;DHT22;53422;49.296;6.900;2023-04-24T01:49:51;11.30;99.90
66568;DHT22;53422;49.296;6.900;2023-04-24T01:52:18;11.40;99.90
66568;DHT22;53422;49.296;6.900;2023-04-24T01:54:44;11.40;99.90
66568;DHT22;53422;49.296;6.900;2023-04-24T01:57:10;11.40;99.90
66568;DHT22;53422;49.296;6.900;2023-04-24T01:59:36;11.40;99.90
66568;DHT22;53422;49.296;6.900;2023-04-24T02:02:02;11.30;99.90
66568;DHT22;53422;49.296;6.900;2023-04-24T02:04:28;11.20;99.90
66568;DHT22;53422;49.296;6.900;2023-04-24T02:06:54;11.20;99.90
66568;DHT22;53422;49.296;6.900;2023-04-24T02:09:20;11.20;99.90
66568;DHT22;53422;49.296;6.900;2023-04-24T02:11:45;11.30;99.90
66568;DHT22;53422;49.296;6.900;2023-04-24T02:14:11;11.30;99.90
66568;DHT22;53422;49.296;6.900;2023-04-24T02:16:36;11.30;99.90
66568;DHT22;53422;49.296;6.900;2023-04-24T02:19:02;11.30;99.90
66568;DHT22;53422;49.296;6.900;2023-04-24T02:21:28;11.30;99.90
66568;DHT22;53422;49.296;6.900;2023-04-24T02:23:54;11.20;99.90
66568;DHT22;53422;49.296;6.900;2023-04-24T02:26:20;11.20;99.90
66568;DHT22;53422;49.296;6.900;2023-04-24T02:28:46;11.30;99.90
66568;DHT22;53422;49.296;6.900;2023-04-24T02:31:11;11.20;99.90
66568;DHT22;53422;49.296;6.900;2023-04-24T02:33:37;11.10;99.90
66568;DHT22;53422;49.296;6.900;2023-04-24T02:36:02;11.10;99.90
66568;DHT22;53422;49.296;6.900;2023-04-24T02:38:29;11.10;99.90
66568;DHT22;53422;49.296;6.900;2023-04-24T02:40:54;11.10;99.90
66568;DHT22;53422;49.296;6.900;2023-04-24T02:43:20;11.10;99.90
66568;DHT22;53422;49.296;6.900;2023-04-24T02:45:46;11.00;99.90
66568;DHT22;53422;49.296;6.900;2023-04-24T02:48:12;11.00;99.90
66568;DHT22;53422;49.296;6.900;2023-04-24T02:50:37;10.90;99.90
66568;DHT22;53422;49.296;6.900;2023-04-24T02:53:03;11.00;99.90
66568;DHT22;53422;49.296;6.900;2023-04-24T02:55:29;11.00;99.90
66568;DHT22;53422;49.296;6.900;2023-04-24T02:57:54;11.10;99.90
66568;DHT22;53422;49.296;6.900;2023-04-24T03:00:20;11.00;99.90
66568;DHT22;53422;49.296;6.900;2023-04-24T03:02:46;10.90;99.90
66568;DHT22;53422;49.296;6.900;2023-04-24T03:05:12;10.80;99.90
66568;DHT22;53422;49.296;6.900;2023-04-24T03:07:38;10.70;99.90
66568;DHT22;53422;49.296;6.900;2023-04-24T03:10:04;10.80;99.90
66568;DHT22;53422;49.296;6.900;2023-04-24T03:12:31;10.80;99.90
66568;DHT22;53422;49.296;6.900;2023-04-24T03:14:56;10.90;99.90
66568;DHT22;53422;49.296;6.900;2023-04-24T03:17:22;10.90;99.90
66568;DHT22;53422;49.296;6.900;2023-04-24T03:19:49;10.90;99.90
66568;DHT22;53422;49.296;6.900;2023-04-24T03:22:14;10.90;99.90
66568;DHT22;53422;49.296;6.900;2023-04-24T03:24:40;10.80;99.90
66568;DHT22;53422;49.296;6.900;2023-04-24T03:27:06;10.80;99.90
66568;DHT22;53422;49.296;6.900;2023-04-24T03:29:31;10.90;99.90
66568;DHT22;53422;49.296;6.900;2023-04-24T03:31:57;10.90;99.90
66568;DHT22;53422;49.296;6.900;2023-04-24T03:34:22;10.80;99.90
66568;DHT22;53422;49.296;6.900;2023-04-24T03:36:48;10.90;99.90
66568;DHT22;53422;49.296;6.900;2023-04-24T03:39:14;10.90;99.90
66568;DHT22;53422;49.296;6.900;2023-04-24T03:41:39;10.90;99.90
66568;DHT22;53422;49.296;6.900;2023-04-24T03:44:05;10.90;99.90
66568;DHT22;53422;49.296;6.900;2023-04-24T03:46:31;10.90;99.90
66568;DHT22;53422;49.296;6.900;2023-04-24T03:48:56;10.80;99.90
66568;DHT22;53422;49.296;6.900;2023-04-24T03:51:22;10.80;99.90
66568;DHT22;53422;49.296;6.900;2023-04-24T03:53:48;10.80;99.90
66568;DHT22;53422;49.296;6.900;2023-04-24T03:56:14;10.90;99.90
66568;DHT22;53422;49.296;6.900;2023-04-24T03:58:40;10.90;99.90
66568;DHT22;53422;49.296;6.900;2023-04-24T04:01:05;10.90;99.90
66568;DHT22;53422;49.296;6.900;2023-04-24T04:03:31;10.80;99.90
66568;DHT22;53422;49.296;6.900;2023-04-24T04:05:57;10.90;99.90
66568;DHT22;53422;49.296;6.900;2023-04-24T04:08:23;10.90;99.90
66568;DHT22;53422;49.296;6.900;2023-04-24T04:10:49;10.80;99.90
66568;DHT22;53422;49.296;6.900;2023-04-24T04:13:14;10.80;99.90
66568;DHT22;53422;49.296;6.900;2023-04-24T04:15:40;10.80;99.90
66568;DHT22;53422;49.296;6.900;2023-04-24T04:18:06;10.90;99.90
66568;DHT22;53422;49.296;6.900;2023-04-24T04:20:31;10.80;99.90
66568;DHT22;53422;49.296;6.900;2023-04-24T04:22:57;10.90;99.90
66568;DHT22;53422;49.296;6.900;2023-04-24T04:25:23;10.90;99.90
66568;DHT22;53422;49.296;6.900;2023-04-24T04:27:48;10.80;99.90
66568;DHT22;53422;49.296;6.900;2023-04-24T04:30:14;10.90;99.90
66568;DHT22;53422;49.296;6.900;2023-04-24T04:32:40;10.90;99.90
66568;DHT22;53422;49.296;6.900;2023-04-24T04:35:07;10.80;99.90
66568;DHT22;53422;49.296;6.900;2023-04-24T04:37:33;10.80;99.90
66568;DHT22;53422;49.296;6.900;2023-04-24T04:39:59;10.80;99.90
66568;DHT22;53422;49.296;6.900;2023-04-24T04:42:25;10.90;99.90
66568;DHT22;53422;49.296;6.900;2023-04-24T04:44:52;10.90;99.90
66568;DHT22;53422;49.296;6.900;2023-04-24T04:47:18;10.90;99.90
66568;DHT22;53422;49.296;6.900;2023-04-24T04:49:47;10.90;99.90
66568;DHT22;53422;49.296;6.900;2023-04-24T04:52:13;10.80;99.90
66568;DHT22;53422;49.296;6.900;2023-04-24T04:54:39;10.80;99.90
66568;DHT22;53422;49.296;6.900;2023-04-24T04:57:05;10.80;99.90
66568;DHT22;53422;49.296;6.900;2023-04-24T04:59:31;10.70;99.90
66568;DHT22;53422;49.296;6.900;2023-04-24T05:01:56;10.80;99.90
66568;DHT22;53422;49.296;6.900;2023-04-24T05:04:22;10.70;99.90
66568;DHT22;53422;49.296;6.900;2023-04-24T05:06:48;10.60;99.90
66568;DHT22;53422;49.296;6.900;2023-04-24T05:09:13;10.60;99.90
66568;DHT22;53422;49.296;6.900;2023-04-24T05:11:39;10.50;99.90
66568;DHT22;53422;49.296;6.900;2023-04-24T05:14:05;10.50;99.90
66568;DHT22;53422;49.296;6.900;2023-04-24T05:16:30;10.50;99.90
66568;DHT22;53422;49.296;6.900;2023-04-24T05:18:56;10.50;99.90
66568;DHT22;53422;49.296;6.900;2023-04-24T05:21:22;10.50;99.90
66568;DHT22;53422;49.296;6.900;2023-04-24T05:23:48;10.60;99.90
66568;DHT22;53422;49.296;6.900;2023-04-24T05:26:14;10.50;99.90
66568;DHT22;53422;49.296;6.900;2023-04-24T05:28:41;10.50;99.90
66568;DHT22;53422;49.296;6.900;2023-04-24T05:31:06;10.30;99.90
66568;DHT22;53422;49.296;6.900;2023-04-24T05:33:32;10.30;99.90
66568;DHT22;53422;49.296;6.900;2023-04-24T05:35:58;10.30;99.90
66568;DHT22;53422;49.296;6.900;2023-04-24T05:38:23;10.30;99.90
66568;DHT22;53422;49.296;6.900;2023-04-24T05:40:49;10.50;99.90
66568;DHT22;53422;49.296;6.900;2023-04-24T05:43:15;10.40;99.90
66568;DHT22;53422;49.296;6.900;2023-04-24T05:45:40;10.30;99.90
66568;DHT22;53422;49.296;6.900;2023-04-24T05:48:06;10.40;99.90
66568;DHT22;53422;49.296;6.900;2023-04-24T05:50:32;10.40;99.90
66568;DHT22;53422;49.296;6.900;2023-04-24T05:52:57;10.40;99.90
66568;DHT22;53422;49.296;6.900;2023-04-24T05:55:30;10.30;99.90
66568;DHT22;53422;49.296;6.900;2023-04-24T05:57:55;10.30;99.90
66568;DHT22;53422;49.296;6.900;2023-04-24T06:00:21;10.20;99.90
66568;DHT22;53422;49.296;6.900;2023-04-24T06:02:47;10.30;99.90
66568;DHT22;53422;49.296;6.900;2023-04-24T06:05:13;10.30;99.90
66568;DHT22;53422;49.296;6.900;2023-04-24T06:07:39;10.30;99.90
66568;DHT22;53422;49.296;6.900;2023-04-24T06:10:06;10.40;99.90
66568;DHT22;53422;49.296;6.900;2023-04-24T06:12:31;10.40;99.90
66568;DHT22;53422;49.296;6.900;2023-04-24T06:14:57;10.20;99.90
66568;DHT22;53422;49.296;6.900;2023-04-24T06:17:23;10.30;99.90
66568;DHT22;53422;49.296;6.900;2023-04-24T06:19:48;10.40;99.90
66568;DHT22;53422;49.296;6.900;2023-04-24T06:22:14;10.40;99.90
66568;DHT22;53422;49.296;6.900;2023-04-24T06:24:40;10.40;99.90
66568;DHT22;53422;49.296;6.900;2023-04-24T06:27:06;10.40;99.90
66568;DHT22;53422;49.296;6.900;2023-04-24T06:29:33;10.40;99.90
66568;DHT22;53422;49.296;6.900;2023-04-24T06:31:59;10.50;99.90
66568;DHT22;53422;49.296;6.900;2023-04-24T06:34:24;10.50;99.90
66568;DHT22;53422;49.296;6.900;2023-04-24T06:36:50;10.50;99.90
66568;DHT22;53422;49.296;6.900;2023-04-24T06:39:16;10.50;99.90
66568;DHT22;53422;49.296;6.900;2023-04-24T06:41:41;10.60;99.90
66568;DHT22;53422;49.296;6.900;2023-04-24T06:44:07;10.50;99.90
66568;DHT22;53422;49.296;6.900;2023-04-24T06:46:33;10.40;99.90
66568;DHT22;53422;49.296;6.900;2023-04-24T06:48:59;10.40;99.90
66568;DHT22;53422;49.296;6.900;2023-04-24T06:51:26;10.40;99.90
66568;DHT22;53422;49.296;6.900;2023-04-24T06:53:53;10.60;99.90
66568;DHT22;53422;49.296;6.900;2023-04-24T06:56:19;10.50;99.90
66568;DHT22;53422;49.296;6.900;2023-04-24T06:58:46;10.40;99.90
66568;DHT22;53422;49.296;6.900;2023-04-24T07:01:12;10.40;99.90
66568;DHT22;53422;49.296;6.900;2023-04-24T07:03:37;10.40;99.90
66568;DHT22;53422;49.296;6.900;2023-04-24T07:06:04;10.50;99.90
66568;DHT22;53422;49.296;6.900;2023-04-24T07:08:30;10.40;99.90
66568;DHT22;53422;49.296;6.900;2023-04-24T07:10:56;10.50;99.90
66568;DHT22;53422;49.296;6.900;2023-04-24T07:13:23;10.50;99.90
66568;DHT22;53422;49.296;6.900;2023-04-24T07:15:49;10.60;99.90
66568;DHT22;53422;49.296;6.900;2023-04-24T07:18:20;10.50;99.90
66568;DHT22;53422;49.296;6.900;2023-04-24T07:20:46;10.50;99.90
66568;DHT22;53422;49.296;6.900;2023-04-24T07:23:12;10.50;99.90
66568;DHT22;53422;49.296;6.900;2023-04-24T07:25:37;10.50;99.90
66568;DHT22;53422;49.296;6.900;2023-04-24T07:28:04;10.50;99.90
66568;DHT22;53422;49.296;6.900;2023-04-24T07:30:30;10.50;99.90
66568;DHT22;53422;49.296;6.900;2023-04-24T07:32:58;10.50;99.90
66568;DHT22;53422;49.296;6.900;2023-04-24T07:35:24;10.50;99.90
66568;DHT22;53422;49.296;6.900;2023-04-24T07:37:54;10.40;99.90
66568;DHT22;53422;49.296;6.900;2023-04-24T07:40:20;10.50;99.90
66568;DHT22;53422;49.296;6.900;2023-04-24T07:42:46;10.50;99.90
66568;DHT22;53422;49.296;6.900;2023-04-24T07:45:14;10.40;99.90
66568;DHT22;53422;49.296;6.900;2023-04-24T07:47:41;10.50;99.90
66568;DHT22;53422;49.296;6.900;2023-04-24T07:50:09;10.50;99.90
66568;DHT22;53422;49.296;6.900;2023-04-24T07:52:35;10.30;99.90
66568;DHT22;53422;49.296;6.900;2023-04-24T07:55:01;10.30;99.90
66568;DHT22;53422;49.296;6.900;2023-04-24T07:57:27;10.40;99.90
66568;DHT22;53422;49.296;6.900;2023-04-24T07:59:54;10.40;99.90
66568;DHT22;53422;49.296;6.900;2023-04-24T08:02:19;10.30;99.90
66568;DHT22;53422;49.296;6.900;2023-04-24T08:04:47;10.30;99.90
66568;DHT22;53422;49.296;6.900;2023-04-24T08:07:12;10.30;99.90
66568;DHT22;53422;49.296;6.900;2023-04-24T08:09:38;10.30;99.90
66568;DHT22;53422;49.296;6.900;2023-04-24T08:12:04;10.20;99.90
66568;DHT22;53422;49.296;6.900;2023-04-24T08:14:30;10.10;99.90
66568;DHT22;53422;49.296;6.900;2023-04-24T08:16:55;10.20;99.90
66568;DHT22;53422;49.296;6.900;2023-04-24T08:19:21;10.20;99.90
66568;DHT22;53422;49.296;6.900;2023-04-24T08:21:47;10.20;99.90
66568;DHT22;53422;49.296;6.900;2023-04-24T08:24:13;10.20;99.90
66568;DHT22;53422;49.296;6.900;2023-04-24T08:26:39;10.20;99.90
66568;DHT22;53422;49.296;6.900;2023-04-24T08:29:05;10.30;99.90
66568;DHT22;53422;49.296;6.900;2023-04-24T08:31:32;10.20;99.90
66568;DHT22;53422;49.296;6.900;2023-04-24T08:33:58;10.30;99.90
66568;DHT22;53422;49.296;6.900;2023-04-24T08:36:25;10.30;99.90
66568;DHT22;53422;49.296;6.900;2023-04-24T08:38:51;10.30;99.90
66568;DHT22;53422;49.296;6.900;2023-04-24T08:41:18;10.30;99.90
66568;DHT22;53422;49.296;6.900;2023-04-24T08:43:46;10.30;99.90
66568;DHT22;53422;49.296;6.900;2023-04-24T08:46:13;10.40;99.90
66568;DHT22;53422;49.296;6.900;2023-04-24T08:48:39;10.40;99.90
66568;DHT22;53422;49.296;6.900;2023-04-24T08:51:07;10.40;99.90
66568;DHT22;53422;49.296;6.900;2023-04-24T08:53:34;10.40;99.90
66568;DHT22;53422;49.296;6.900;2023-04-24T08:56:00;10.20;99.90
66568;DHT22;53422;49.296;6.900;2023-04-24T08:58:27;10.20;99.90
66568;DHT22;53422;49.296;6.900;2023-04-24T09:00:57;10.20;99.90
66568;DHT22;53422;49.296;6.900;2023-04-24T09:03:23;10.30;99.90
66568;DHT22;53422;49.296;6.900;2023-04-24T09:05:50;10.30;99.90
66568;DHT22;53422;49.296;6.900;2023-04-24T09:08:19;10.40;99.90
66568;DHT22;53422;49.296;6.900;2023-04-24T09:10:45;10.30;99.90
66568;DHT22;53422;49.296;6.900;2023-04-24T09:13:11;10.20;99.90
66568;DHT22;53422;49.296;6.900;2023-04-24T09:15:40;10.20;99.90
66568;DHT22;53422;49.296;6.900;2023-04-24T09:18:06;10.20;99.90
66568;DHT22;53422;49.296;6.900;2023-04-24T09:20:32;10.30;99.90
66568;DHT22;53422;49.296;6.900;2023-04-24T09:22:58;10.30;99.90
66568;DHT22;53422;49.296;6.900;2023-04-24T09:25:34;10.40;99.90
66568;DHT22;53422;49.296;6.900;2023-04-24T09:28:04;10.30;99.90
66568;DHT22;53422;49.296;6.900;2023-04-24T09:30:32;10.30;99.90
66568;DHT22;53422;49.296;6.900;2023-04-24T09:33:14;10.30;99.90
66568;DHT22;53422;49.296;6.900;2023-04-24T09:35:41;10.20;99.90
66568;DHT22;53422;49.296;6.900;2023-04-24T09:38:07;10.20;99.90
66568;DHT22;53422;49.296;6.900;2023-04-24T09:40:34;10.20;99.90
66568;DHT22;53422;49.296;6.900;2023-04-24T09:43:01;10.20;99.90
66568;DHT22;53422;49.296;6.900;2023-04-24T09:45:35;10.20;99.90
66568;DHT22;53422;49.296;6.900;2023-04-24T09:48:01;10.30;99.90
66568;DHT22;53422;49.296;6.900;2023-04-24T09:50:27;10.20;99.90
66568;DHT22;53422;49.296;6.900;2023-04-24T09:52:57;10.30;99.90
66568;DHT22;53422;49.296;6.900;2023-04-24T09:55:24;10.40;99.90
66568;DHT22;53422;49.296;6.900;2023-04-24T09:57:52;10.40;99.90
66568;DHT22;53422;49.296;6.900;2023-04-24T10:00:20;10.40;99.90
66568;DHT22;53422;49.296;6.900;2023-04-24T10:02:49;10.30;99.90
66568;DHT22;53422;49.296;6.900;2023-04-24T10:05:17;10.40;99.90
66568;DHT22;53422;49.296;6.900;2023-04-24T10:07:43;10.30;99.90
66568;DHT22;53422;49.296;6.900;2023-04-24T10:10:09;10.40;99.90
66568;DHT22;53422;49.296;6.900;2023-04-24T10:12:36;10.40;99.90
66568;DHT22;53422;49.296;6.900;2023-04-24T10:15:02;10.50;99.90
66568;DHT22;53422;49.296;6.900;2023-04-24T10:17:29;10.50;99.90
66568;DHT22;53422;49.296;6.900;2023-04-24T10:19:55;10.50;99.90
66568;DHT22;53422;49.296;6.900;2023-04-24T10:22:21;10.50;99.90
66568;DHT22;53422;49.296;6.900;2023-04-24T10:24:49;10.50;99.90
66568;DHT22;53422;49.296;6.900;2023-04-24T10:27:16;10.60;99.90
66568;DHT22;53422;49.296;6.900;2023-04-24T10:29:43;10.70;99.90
66568;DHT22;53422;49.296;6.900;2023-04-24T10:32:10;10.60;99.90
66568;DHT22;53422;49.296;6.900;2023-04-24T10:34:36;10.70;99.90
66568;DHT22;53422;49.296;6.900;2023-04-24T10:37:02;10.80;99.90
66568;DHT22;53422;49.296;6.900;2023-04-24T10:39:29;10.80;99.90
66568;DHT22;53422;49.296;6.900;2023-04-24T10:41:56;10.80;99.90
66568;DHT22;53422;49.296;6.900;2023-04-24T10:44:23;10.90;99.90
66568;DHT22;53422;49.296;6.900;2023-04-24T10:46:53;10.90;99.90
66568;DHT22;53422;49.296;6.900;2023-04-24T10:49:30;11.00;99.90
66568;DHT22;53422;49.296;6.900;2023-04-24T10:52:01;11.00;99.90
66568;DHT22;53422;49.296;6.900;2023-04-24T10:54:41;11.00;99.90
66568;DHT22;53422;49.296;6.900;2023-04-24T10:59:50;11.10;99.90
66568;DHT22;53422;49.296;6.900;2023-04-24T11:02:16;11.10;99.90
66568;DHT22;53422;49.296;6.900;2023-04-24T11:04:43;11.20;99.90
66568;DHT22;53422;49.296;6.900;2023-04-24T11:07:10;11.20;99.90
66568;DHT22;53422;49.296;6.900;2023-04-24T11:09:36;11.30;99.90
66568;DHT22;53422;49.296;6.900;2023-04-24T11:12:07;11.30;99.90
66568;DHT22;53422;49.296;6.900;2023-04-24T11:15:10;11.30;99.90
66568;DHT22;53422;49.296;6.900;2023-04-24T11:17:37;11.40;99.90
66568;DHT22;53422;49.296;6.900;2023-04-24T11:20:04;11.40;99.90
66568;DHT22;53422;49.296;6.900;2023-04-24T11:22:34;11.40;99.90
66568;DHT22;53422;49.296;6.900;2023-04-24T11:25:03;11.50;99.90
66568;DHT22;53422;49.296;6.900;2023-04-24T11:27:40;11.50;99.90
66568;DHT22;53422;49.296;6.900;2023-04-24T11:30:07;11.50;99.90
66568;DHT22;53422;49.296;6.900;2023-04-24T11:35:05;11.60;99.90
66568;DHT22;53422;49.296;6.900;2023-04-24T11:37:42;11.60;99.90
66568;DHT22;53422;49.296;6.900;2023-04-24T11:40:12;11.60;99.90
66568;DHT22;53422;49.296;6.900;2023-04-24T11:42:40;11.60;99.90
66568;DHT22;53422;49.296;6.900;2023-04-24T11:45:14;11.60;99.90
66568;DHT22;53422;49.296;6.900;2023-04-24T11:47:40;11.60;99.90
66568;DHT22;53422;49.296;6.900;2023-04-24T11:50:08;11.70;99.90
66568;DHT22;53422;49.296;6.900;2023-04-24T11:52:39;11.70;99.90
66568;DHT22;53422;49.296;6.900;2023-04-24T11:57:56;11.80;99.90
66568;DHT22;53422;49.296;6.900;2023-04-24T12:00:24;11.90;99.90
66568;DHT22;53422;49.296;6.900;2023-04-24T12:02:51;12.00;99.90
66568;DHT22;53422;49.296;6.900;2023-04-24T12:05:25;12.10;99.90
66568;DHT22;53422;49.296;6.900;2023-04-24T12:07:52;12.10;99.90
66568;DHT22;53422;49.296;6.900;2023-04-24T12:10:23;12.20;99.90
66568;DHT22;53422;49.296;6.900;2023-04-24T12:12:50;12.20;99.90
66568;DHT22;53422;49.296;6.900;2023-04-24T12:15:17;12.20;99.90
66568;DHT22;53422;49.296;6.900;2023-04-24T12:17:44;12.30;99.90
66568;DHT22;53422;49.296;6.900;2023-04-24T12:20:10;12.30;99.90
66568;DHT22;53422;49.296;6.900;2023-04-24T12:22:51;12.30;99.90
66568;DHT22;53422;49.296;6.900;2023-04-24T12:25:21;12.30;99.90
66568;DHT22;53422;49.296;6.900;2023-04-24T12:27:53;12.30;99.90
66568;DHT22;53422;49.296;6.900;2023-04-24T12:30:19;12.30;99.90
66568;DHT22;53422;49.296;6.900;2023-04-24T12:32:49;12.30;99.90
66568;DHT22;53422;49.296;6.900;2023-04-24T12:35:23;12.30;99.90
66568;DHT22;53422;49.296;6.900;2023-04-24T12:37:49;12.30;99.90
66568;DHT22;53422;49.296;6.900;2023-04-24T12:40:17;12.30;99.90
66568;DHT22;53422;49.296;6.900;2023-04-24T12:42:45;12.20;99.90
66568;DHT22;53422;49.296;6.900;2023-04-24T12:45:11;12.20;99.90
66568;DHT22;53422;49.296;6.900;2023-04-24T12:47:41;12.20;99.90
66568;DHT22;53422;49.296;6.900;2023-04-24T12:50:11;12.10;99.90
66568;DHT22;53422;49.296;6.900;2023-04-24T12:52:37;12.00;99.90
66568;DHT22;53422;49.296;6.900;2023-04-24T12:55:05;12.00;99.90
66568;DHT22;53422;49.296;6.900;2023-04-24T12:57:34;12.00;99.90
66568;DHT22;53422;49.296;6.900;2023-04-24T13:00:00;12.00;99.90
66568;DHT22;53422;49.296;6.900;2023-04-24T13:02:27;12.00;99.90
66568;DHT22;53422;49.296;6.900;2023-04-24T13:04:54;12.00;99.90
66568;DHT22;53422;49.296;6.900;2023-04-24T13:07:20;12.00;99.90
66568;DHT22;53422;49.296;6.900;2023-04-24T13:09:48;12.00;99.90
66568;DHT22;53422;49.296;6.900;2023-04-24T13:12:14;11.90;99.90
66568;DHT22;53422;49.296;6.900;2023-04-24T13:14:40;11.80;99.90
66568;DHT22;53422;49.296;6.900;2023-04-24T13:17:06;11.70;99.90
66568;DHT22;53422;49.296;6.900;2023-04-24T13:19:40;11.50;99.90
66568;DHT22;53422;49.296;6.900;2023-04-24T13:22:06;11.50;99.90
66568;DHT22;53422;49.296;6.900;2023-04-24T13:24:33;11.50;99.90
66568;DHT22;53422;49.296;6.900;2023-04-24T13:26:59;11.50;99.90
66568;DHT22;53422;49.296;6.900;2023-04-24T13:29:25;11.60;99.90
66568;DHT22;53422;49.296;6.900;2023-04-24T13:31:51;11.60;99.90
66568;DHT22;53422;49.296;6.900;2023-04-24T13:34:19;11.50;99.90
66568;DHT22;53422;49.296;6.900;2023-04-24T13:36:45;11.50;99.90
66568;DHT22;53422;49.296;6.900;2023-04-24T13:39:11;11.50;99.90
66568;DHT22;53422;49.296;6.900;2023-04-24T13:41:37;11.50;99.90
66568;DHT22;53422;49.296;6.900;2023-04-24T13:44:03;11.60;99.90
66568;DHT22;53422;49.296;6.900;2023-04-24T13:46:30;11.60;99.90
66568;DHT22;53422;49.296;6.900;2023-04-24T13:48:56;11.50;99.90
66568;DHT22;53422;49.296;6.900;2023-04-24T13:51:23;11.60;99.90
66568;DHT22;53422;49.296;6.900;2023-04-24T13:53:49;11.60;99.90
66568;DHT22;53422;49.296;6.900;2023-04-24T13:56:14;11.50;99.90
66568;DHT22;53422;49.296;6.900;2023-04-24T13:58:40;11.60;99.90
66568;DHT22;53422;49.296;6.900;2023-04-24T14:01:06;11.50;99.90
66568;DHT22;53422;49.296;6.900;2023-04-24T14:03:33;11.60;99.90
66568;DHT22;53422;49.296;6.900;2023-04-24T14:05:59;11.60;99.90
66568;DHT22;53422;49.296;6.900;2023-04-24T14:08:25;11.70;99.90
66568;DHT22;53422;49.296;6.900;2023-04-24T14:10:50;11.70;99.90
66568;DHT22;53422;49.296;6.900;2023-04-24T14:13:16;11.60;99.90
66568;DHT22;53422;49.296;6.900;2023-04-24T14:15:42;11.60;99.90
66568;DHT22;53422;49.296;6.900;2023-04-24T14:18:08;11.60;99.90
66568;DHT22;53422;49.296;6.900;2023-04-24T14:20:33;11.60;99.90
66568;DHT22;53422;49.296;6.900;2023-04-24T14:22:59;11.60;99.90
66568;DHT22;53422;49.296;6.900;2023-04-24T14:25:25;11.60;99.90
66568;DHT22;53422;49.296;6.900;2023-04-24T14:27:51;11.70;99.90
66568;DHT22;53422;49.296;6.900;2023-04-24T14:30:17;11.70;99.90
66568;DHT22;53422;49.296;6.900;2023-04-24T14:32:43;11.60;99.90
66568;DHT22;53422;49.296;6.900;2023-04-24T14:35:09;11.60;99.90
66568;DHT22;53422;49.296;6.900;2023-04-24T14:37:35;11.50;99.90
66568;DHT22;53422;49.296;6.900;2023-04-24T14:40:02;11.50;99.90
66568;DHT22;53422;49.296;6.900;2023-04-24T14:42:28;11.60;99.90
66568;DHT22;53422;49.296;6.900;2023-04-24T14:44:54;11.60;99.90
66568;DHT22;53422;49.296;6.900;2023-04-24T14:47:20;11.60;99.90
66568;DHT22;53422;49.296;6.900;2023-04-24T14:49:49;11.60;99.90
66568;DHT22;53422;49.296;6.900;2023-04-24T14:52:14;11.60;99.90
66568;DHT22;53422;49.296;6.900;2023-04-24T14:54:41;11.60;99.90
66568;DHT22;53422;49.296;6.900;2023-04-24T14:57:07;11.60;99.90
66568;DHT22;53422;49.296;6.900;2023-04-24T14:59:33;11.70;99.90
66568;DHT22;53422;49.296;6.900;2023-04-24T15:01:59;11.70;99.90
66568;DHT22;53422;49.296;6.900;2023-04-24T15:04:25;11.70;99.90
66568;DHT22;53422;49.296;6.900;2023-04-24T15:06:51;11.70;99.90
66568;DHT22;53422;49.296;6.900;2023-04-24T15:09:17;11.70;99.90
66568;DHT22;53422;49.296;6.900;2023-04-24T15:11:42;11.70;99.90
66568;DHT22;53422;49.296;6.900;2023-04-24T15:14:08;11.70;99.90
66568;DHT22;53422;49.296;6.900;2023-04-24T15:16:34;11.70;99.90
66568;DHT22;53422;49.296;6.900;2023-04-24T15:18:59;11.80;99.90
66568;DHT22;53422;49.296;6.900;2023-04-24T15:21:25;11.80;99.90
66568;DHT22;53422;49.296;6.900;2023-04-24T15:23:51;11.80;99.90
66568;DHT22;53422;49.296;6.900;2023-04-24T15:26:17;11.80;99.90
66568;DHT22;53422;49.296;6.900;2023-04-24T15:28:42;11.70;99.90
66568;DHT22;53422;49.296;6.900;2023-04-24T15:31:08;11.70;99.90
66568;DHT22;53422;49.296;6.900;2023-04-24T15:33:34;11.80;99.90
66568;DHT22;53422;49.296;6.900;2023-04-24T15:35:59;11.70;99.90